createdAt,value
2023-04-09T00:00:17.630Z,5.63
2023-04-09T00:02:44.471Z,5.65
2023-04-09T00:05:11.441Z,4.57
2023-04-09T00:07:38.161Z,5.10
2023-04-09T00:10:05.633Z,5.53
2023-04-09T00:12:32.438Z,4.80
2023-04-09T00:14:59.322Z,4.50
2023-04-09T00:17:26.059Z,4.72
2023-04-09T00:19:52.863Z,6.55
2023-04-09T00:22:19.705Z,5.40
2023-04-09T00:24:46.445Z,5.22
2023-04-09T00:27:13.181Z,4.38
2023-04-09T00:29:40.040Z,4.50
2023-04-09T00:32:07.355Z,5.35
2023-04-09T00:34:34.354Z,4.37
2023-04-09T00:37:01.247Z,4.75
2023-04-09T00:39:28.250Z,5.10
2023-04-09T00:42:04.366Z,4.60
2023-04-09T00:44:31.292Z,3.83
2023-04-09T00:47:00.532Z,4.95
2023-04-09T00:49:27.747Z,5.30
2023-04-09T00:51:54.654Z,4.68
2023-04-09T00:54:21.506Z,4.37
2023-04-09T00:56:48.469Z,4.28
2023-04-09T00:59:15.793Z,5.78
2023-04-09T01:01:42.732Z,3.80
2023-04-09T01:04:09.953Z,3.33
2023-04-09T01:06:49.560Z,4.97
2023-04-09T01:09:30.968Z,4.22
2023-04-09T01:12:23.555Z,4.38
2023-04-09T01:15:03.844Z,3.50
2023-04-09T01:17:38.075Z,5.30
2023-04-09T01:20:22.242Z,3.22
2023-04-09T01:23:17.730Z,3.75
2023-04-09T01:25:45.402Z,3.33
2023-04-09T01:28:22.467Z,3.00
2023-04-09T01:30:56.569Z,5.00
2023-04-09T01:33:25.482Z,3.10
2023-04-09T01:35:53.830Z,2.60
2023-04-09T01:38:22.130Z,3.17
2023-04-09T01:40:52.258Z,3.17
2023-04-09T01:43:19.967Z,2.88
2023-04-09T01:45:48.004Z,2.95
2023-04-09T01:48:15.979Z,3.42
2023-04-09T01:50:43.716Z,2.85
2023-04-09T01:53:11.339Z,2.95
2023-04-09T01:55:38.217Z,2.60
2023-04-09T01:58:05.896Z,2.92
2023-04-09T02:00:43.827Z,3.33
2023-04-09T02:03:29.155Z,2.70
2023-04-09T02:06:07.742Z,2.83
2023-04-09T02:08:35.345Z,4.75
2023-04-09T02:11:05.381Z,5.90
2023-04-09T02:13:34.956Z,2.90
2023-04-09T02:16:03.487Z,3.10
2023-04-09T02:18:30.976Z,4.40
2023-04-09T02:20:58.713Z,3.15
2023-04-09T02:23:30.106Z,7.20
2023-04-09T02:25:56.880Z,3.58
2023-04-09T02:28:23.621Z,4.80
2023-04-09T02:30:51.738Z,2.60
2023-04-09T02:33:18.530Z,4.30
2023-04-09T02:35:45.441Z,5.60
2023-04-09T02:38:13.772Z,3.53
2023-04-09T02:40:41.380Z,7.10
2023-04-09T02:43:09.070Z,6.53
2023-04-09T02:45:36.062Z,5.80
2023-04-09T02:48:02.991Z,4.32
2023-04-09T02:50:34.365Z,5.47
2023-04-09T02:53:01.191Z,5.15
2023-04-09T02:55:27.984Z,4.97
2023-04-09T02:57:54.753Z,4.65
2023-04-09T03:00:21.566Z,3.75
2023-04-09T03:02:48.445Z,4.65
2023-04-09T03:05:15.309Z,9.13
2023-04-09T03:07:42.298Z,5.70
2023-04-09T03:10:09.600Z,11.48
2023-04-09T03:12:36.380Z,6.32
2023-04-09T03:15:04.511Z,3.40
2023-04-09T03:17:32.027Z,6.38
2023-04-09T03:19:59.229Z,4.90
2023-04-09T03:22:37.721Z,7.63
2023-04-09T03:25:08.538Z,4.53
2023-04-09T03:27:35.780Z,4.95
2023-04-09T03:30:03.771Z,6.50
2023-04-09T03:32:42.874Z,7.28
2023-04-09T03:35:12.401Z,4.53
2023-04-09T03:37:40.680Z,5.73
2023-04-09T03:40:14.089Z,5.18
2023-04-09T03:42:42.847Z,5.67
2023-04-09T03:45:11.036Z,5.18
2023-04-09T03:47:42.418Z,6.60
2023-04-09T03:50:10.173Z,4.72
2023-04-09T03:52:46.694Z,4.40
2023-04-09T03:55:13.448Z,4.25
2023-04-09T03:57:40.502Z,5.45
2023-04-09T04:00:11.700Z,6.10
2023-04-09T04:02:50.753Z,3.42
2023-04-09T04:05:27.386Z,4.65
2023-04-09T04:07:57.193Z,6.00
2023-04-09T04:10:27.627Z,4.82
2023-04-09T04:12:54.336Z,4.88
2023-04-09T04:15:25.905Z,4.35
2023-04-09T04:17:55.914Z,5.60
2023-04-09T04:20:37.761Z,3.70
2023-04-09T04:23:09.209Z,5.15
2023-04-09T04:25:42.089Z,6.00
2023-04-09T04:28:12.119Z,3.53
2023-04-09T04:30:42.776Z,4.10
2023-04-09T04:33:10.224Z,5.05
2023-04-09T04:35:43.819Z,6.93
2023-04-09T04:38:27.019Z,4.47
2023-04-09T04:40:54.716Z,3.07
2023-04-09T04:43:22.890Z,5.22
2023-04-09T04:45:53.559Z,3.80
2023-04-09T04:48:23.613Z,4.15
2023-04-09T04:51:01.234Z,4.80
2023-04-09T04:53:34.637Z,3.60
2023-04-09T04:56:15.662Z,8.93
2023-04-09T04:59:00.180Z,3.60
2023-04-09T05:01:28.160Z,4.97
2023-04-09T05:03:55.459Z,3.65
2023-04-09T05:06:31.449Z,5.13
2023-04-09T05:09:01.391Z,4.65
2023-04-09T05:11:35.800Z,4.40
2023-04-09T05:14:06.127Z,3.97
2023-04-09T05:16:33.304Z,3.95
2023-04-09T05:19:04.795Z,5.40
2023-04-09T05:21:32.149Z,6.50
2023-04-09T05:24:00.433Z,4.15
2023-04-09T05:26:30.992Z,4.90
2023-04-09T05:28:58.755Z,4.93
2023-04-09T05:31:26.104Z,5.25
2023-04-09T05:34:00.480Z,4.47
2023-04-09T05:36:36.030Z,4.03
2023-04-09T05:39:03.195Z,5.35
2023-04-09T05:41:32.566Z,3.75
2023-04-09T05:44:16.032Z,3.28
2023-04-09T05:46:43.497Z,4.97
2023-04-09T05:49:11.448Z,3.13
2023-04-09T05:51:40.550Z,4.05
2023-04-09T05:54:07.458Z,3.08
2023-04-09T05:56:37.122Z,3.95
2023-04-09T05:59:05.033Z,4.80
2023-04-09T06:01:32.854Z,6.55
2023-04-09T06:04:00.120Z,6.57
2023-04-09T06:06:30.181Z,5.78
2023-04-09T06:08:56.934Z,5.85
2023-04-09T06:11:26.954Z,4.93
2023-04-09T06:13:53.963Z,5.03
2023-04-09T06:16:21.026Z,5.40
2023-04-09T06:18:50.818Z,5.35
2023-04-09T06:21:17.629Z,7.65
2023-04-09T06:23:44.445Z,4.50
2023-04-09T06:26:11.378Z,4.47
2023-04-09T06:28:38.544Z,5.10
2023-04-09T06:31:05.728Z,5.07
2023-04-09T06:33:32.533Z,3.88
2023-04-09T06:35:59.372Z,3.67
2023-04-09T06:38:26.101Z,2.90
2023-04-09T06:40:55.657Z,3.22
2023-04-09T06:43:22.375Z,3.55
2023-04-09T06:45:51.340Z,4.60
2023-04-09T06:48:18.210Z,3.85
2023-04-09T06:50:45.602Z,8.85
2023-04-09T06:53:12.433Z,4.38
2023-04-09T06:55:39.984Z,4.90
2023-04-09T06:58:06.809Z,3.10
2023-04-09T07:00:33.617Z,3.72
2023-04-09T07:03:00.802Z,6.97
2023-04-09T07:05:27.832Z,6.32
2023-04-09T07:07:54.673Z,4.30
2023-04-09T07:10:21.467Z,4.90
2023-04-09T07:12:48.243Z,12.25
2023-04-09T07:15:15.448Z,8.65
2023-04-09T07:17:42.434Z,4.90
2023-04-09T07:20:09.737Z,5.13
2023-04-09T07:22:36.702Z,4.40
2023-04-09T07:25:04.027Z,5.13
2023-04-09T07:27:30.882Z,5.67
2023-04-09T07:29:59.206Z,5.50
2023-04-09T07:32:30.711Z,3.92
2023-04-09T07:34:59.340Z,5.45
2023-04-09T07:37:27.056Z,3.88
2023-04-09T07:39:53.957Z,18.38
2023-04-09T07:42:21.884Z,9.55
2023-04-09T07:44:48.801Z,9.23
2023-04-09T07:47:16.152Z,6.90
2023-04-09T07:49:43.068Z,8.70
2023-04-09T07:52:09.816Z,9.10
2023-04-09T07:54:36.675Z,8.15
2023-04-09T07:57:03.599Z,8.40
2023-04-09T07:59:31.506Z,14.80
2023-04-09T08:01:59.109Z,10.82
2023-04-09T08:04:27.969Z,13.18
2023-04-09T08:06:55.009Z,7.83
2023-04-09T08:09:21.937Z,16.88
2023-04-09T08:11:49.655Z,11.02
2023-04-09T08:14:18.017Z,6.90
2023-04-09T08:16:46.878Z,9.65
2023-04-09T08:19:15.698Z,9.38
2023-04-09T08:21:43.168Z,11.55
2023-04-09T08:24:12.473Z,9.18
2023-04-09T08:26:40.249Z,10.55
2023-04-09T08:29:07.842Z,12.00
2023-04-09T08:31:37.322Z,9.15
2023-04-09T08:36:35.745Z,12.98
2023-04-09T08:39:03.903Z,10.47
2023-04-09T08:41:31.093Z,8.82
2023-04-09T08:43:59.754Z,9.77
2023-04-09T08:46:27.718Z,12.13
2023-04-09T08:48:55.048Z,8.00
2023-04-09T08:51:23.650Z,9.25
2023-04-09T08:53:57.243Z,10.27
2023-04-09T08:56:24.369Z,10.57
2023-04-09T08:58:51.615Z,11.88
2023-04-09T09:01:21.041Z,11.50
2023-04-09T09:03:59.226Z,13.50
2023-04-09T09:06:30.015Z,10.55
2023-04-09T09:09:04.972Z,11.32
2023-04-09T09:11:32.739Z,11.15
2023-04-09T09:14:19.863Z,9.88
2023-04-09T09:16:55.804Z,11.27
2023-04-09T09:19:26.023Z,10.60
2023-04-09T09:22:01.661Z,11.27
2023-04-09T09:24:29.009Z,11.77
2023-04-09T09:26:59.593Z,9.52
2023-04-09T09:29:27.578Z,11.45
2023-04-09T09:31:56.254Z,11.15
2023-04-09T09:34:24.624Z,11.48
2023-04-09T09:36:51.515Z,15.10
2023-04-09T09:39:18.412Z,12.98
2023-04-09T09:41:46.603Z,10.63
2023-04-09T09:44:31.315Z,13.53
2023-04-09T09:47:03.387Z,11.15
2023-04-09T09:49:30.372Z,11.18
2023-04-09T09:51:59.843Z,11.35
2023-04-09T09:54:31.276Z,12.23
2023-04-09T09:57:04.567Z,10.43
2023-04-09T09:59:37.224Z,10.25
2023-04-09T10:02:16.675Z,10.70
2023-04-09T10:04:44.028Z,10.73
2023-04-09T10:07:11.071Z,9.65
2023-04-09T10:09:49.364Z,11.95
2023-04-09T10:14:45.103Z,10.63
2023-04-09T10:17:12.153Z,13.50
2023-04-09T10:19:44.360Z,11.65
2023-04-09T10:22:15.374Z,10.13
2023-04-09T10:24:43.411Z,12.30
2023-04-09T10:27:17.092Z,10.57
2023-04-09T10:29:49.450Z,10.40
2023-04-09T10:32:25.128Z,10.20
2023-04-09T10:34:52.265Z,9.18
2023-04-09T10:37:25.927Z,9.40
2023-04-09T10:39:53.352Z,11.52
2023-04-09T10:42:24.597Z,9.48
2023-04-09T10:45:12.283Z,9.80
2023-04-09T10:47:43.777Z,9.15
2023-04-09T10:50:21.477Z,12.25
2023-04-09T10:52:53.633Z,12.80
2023-04-09T10:55:37.403Z,13.30
2023-04-09T10:58:12.360Z,12.30
2023-04-09T11:00:42.053Z,11.82
2023-04-09T11:03:09.180Z,11.05
2023-04-09T11:05:41.568Z,13.43
2023-04-09T11:08:16.632Z,14.00
2023-04-09T11:10:45.244Z,12.75
2023-04-09T11:13:13.564Z,12.32
2023-04-09T11:15:42.229Z,15.50
2023-04-09T11:18:12.018Z,14.57
2023-04-09T11:20:40.247Z,13.85
2023-04-09T11:23:08.002Z,14.43
2023-04-09T11:25:35.489Z,13.95
2023-04-09T11:28:06.070Z,13.95
2023-04-09T11:30:34.341Z,14.50
2023-04-09T11:33:02.246Z,13.73
2023-04-09T11:35:30.297Z,12.47
2023-04-09T11:37:57.209Z,12.32
2023-04-09T11:40:26.301Z,12.83
2023-04-09T11:42:55.443Z,13.45
2023-04-09T11:45:29.809Z,15.40
2023-04-09T11:47:56.998Z,12.00
2023-04-09T11:50:24.222Z,12.50
2023-04-09T11:52:54.068Z,12.27
2023-04-09T11:55:28.328Z,14.05
2023-04-09T11:58:03.059Z,14.77
2023-04-09T12:00:30.057Z,24.15
2023-04-09T12:03:03.522Z,34.03
2023-04-09T12:05:34.974Z,30.80
2023-04-09T12:08:04.981Z,33.33
2023-04-09T12:10:33.988Z,33.67
2023-04-09T12:13:06.823Z,32.00
2023-04-09T12:15:37.118Z,32.63
2023-04-09T12:18:07.802Z,30.20
2023-04-09T12:20:36.575Z,27.57
2023-04-09T12:23:05.674Z,29.17
2023-04-09T12:25:37.004Z,27.05
2023-04-09T12:28:06.807Z,28.88
2023-04-09T12:30:35.992Z,25.00
2023-04-09T12:33:04.296Z,19.48
2023-04-09T12:35:31.754Z,20.30
2023-04-09T12:37:59.627Z,23.83
2023-04-09T12:40:29.472Z,21.63
2023-04-09T12:42:56.566Z,20.27
2023-04-09T12:45:23.343Z,19.77
2023-04-09T12:47:51.388Z,21.42
2023-04-09T12:50:18.147Z,19.17
2023-04-09T12:52:45.489Z,17.23
2023-04-09T12:55:13.101Z,19.85
2023-04-09T12:57:42.282Z,20.00
2023-04-09T13:00:09.693Z,18.50
2023-04-09T13:02:36.914Z,17.53
2023-04-09T13:05:04.586Z,15.98
2023-04-09T13:07:31.682Z,15.35
2023-04-09T13:09:59.430Z,15.73
2023-04-09T13:12:26.535Z,13.20
2023-04-09T13:14:54.702Z,18.02
2023-04-09T13:17:22.363Z,16.42
2023-04-09T13:19:51.493Z,15.57
2023-04-09T13:22:19.138Z,16.15
2023-04-09T13:24:46.164Z,12.00
2023-04-09T13:27:14.748Z,13.27
2023-04-09T13:29:41.583Z,15.02
2023-04-09T13:32:10.512Z,12.43
2023-04-09T13:34:37.944Z,11.40
2023-04-09T13:37:06.846Z,12.38
2023-04-09T13:39:33.793Z,11.95
2023-04-09T13:42:07.411Z,12.40
2023-04-09T13:44:40.817Z,11.27
2023-04-09T13:47:07.620Z,9.20
2023-04-09T13:49:34.652Z,11.07
2023-04-09T13:52:01.509Z,9.25
2023-04-09T13:54:28.309Z,11.53
2023-04-09T13:56:58.149Z,11.40
2023-04-09T13:59:26.947Z,11.18
2023-04-09T14:01:53.818Z,8.80
2023-04-09T14:04:20.721Z,8.57
2023-04-09T14:06:47.553Z,8.93
2023-04-09T14:09:15.521Z,9.10
2023-04-09T14:11:42.201Z,8.68
2023-04-09T14:14:09.320Z,8.80
2023-04-09T14:16:36.196Z,8.93
2023-04-09T14:19:03.143Z,8.43
2023-04-09T14:21:30.028Z,7.60
2023-04-09T14:23:56.784Z,8.20
2023-04-09T14:26:24.440Z,8.20
2023-04-09T14:28:52.608Z,7.20
2023-04-09T14:31:21.472Z,9.17
2023-04-09T14:33:48.935Z,6.95
2023-04-09T14:36:18.218Z,7.17
2023-04-09T14:38:45.817Z,6.32
2023-04-09T14:41:12.664Z,5.90
2023-04-09T14:43:39.620Z,6.88
2023-04-09T14:46:11.515Z,7.10
2023-04-09T14:48:39.719Z,6.72
2023-04-09T14:51:06.850Z,7.53
2023-04-09T14:53:33.610Z,6.40
2023-04-09T14:56:00.387Z,6.70
2023-04-09T14:58:27.154Z,6.17
2023-04-09T15:00:54.106Z,6.00
2023-04-09T15:03:22.130Z,5.93
2023-04-09T15:05:49.124Z,5.93
2023-04-09T15:08:16.961Z,5.78
2023-04-09T15:10:43.660Z,5.23
2023-04-09T15:13:10.445Z,6.45
2023-04-09T15:15:40.595Z,6.63
2023-04-09T15:18:09.393Z,6.55
2023-04-09T15:20:38.174Z,6.20
2023-04-09T15:23:05.335Z,6.10
2023-04-09T15:25:32.743Z,5.15
2023-04-09T15:27:59.607Z,5.07
2023-04-09T15:30:26.514Z,4.50
2023-04-09T15:32:53.484Z,5.97
2023-04-09T15:35:24.992Z,5.35
2023-04-09T15:37:51.993Z,4.88
2023-04-09T15:40:19.165Z,5.47
2023-04-09T15:42:46.907Z,5.13
2023-04-09T15:45:18.259Z,5.13
2023-04-09T15:47:46.044Z,4.68
2023-04-09T15:50:13.909Z,5.15
2023-04-09T15:52:40.752Z,5.32
2023-04-09T15:55:08.152Z,6.25
2023-04-09T15:57:38.709Z,4.78
2023-04-09T16:00:09.351Z,5.15
2023-04-09T16:02:38.742Z,5.82
2023-04-09T16:05:07.180Z,5.85
2023-04-09T16:07:35.249Z,6.82
2023-04-09T16:10:04.619Z,5.45
2023-04-09T16:12:31.353Z,5.00
2023-04-09T16:14:59.058Z,5.22
2023-04-09T16:17:34.544Z,4.35
2023-04-09T16:20:08.847Z,4.13
2023-04-09T16:22:36.648Z,5.20
2023-04-09T16:25:08.079Z,4.88
2023-04-09T16:27:34.996Z,4.95
2023-04-09T16:30:04.254Z,4.07
2023-04-09T16:32:31.294Z,3.67
2023-04-09T16:35:00.628Z,4.07
2023-04-09T16:37:29.270Z,4.15
2023-04-09T16:39:58.133Z,6.05
2023-04-09T16:42:28.133Z,4.00
2023-04-09T16:44:55.042Z,4.88
2023-04-09T16:47:23.335Z,4.68
2023-04-09T16:49:51.516Z,4.05
2023-04-09T16:52:18.549Z,3.80
2023-04-09T16:54:47.497Z,4.53
2023-04-09T16:57:17.540Z,3.67
2023-04-09T16:59:45.150Z,4.22
2023-04-09T17:02:13.044Z,3.80
2023-04-09T17:04:39.924Z,3.45
2023-04-09T17:07:07.728Z,4.20
2023-04-09T17:09:35.662Z,4.13
2023-04-09T17:12:03.765Z,4.00
2023-04-09T17:14:34.521Z,3.83
2023-04-09T17:17:02.753Z,4.38
2023-04-09T17:19:30.606Z,3.83
2023-04-09T17:21:58.891Z,3.85
2023-04-09T17:24:29.905Z,3.97
2023-04-09T17:26:57.343Z,3.50
2023-04-09T17:29:26.280Z,4.00
2023-04-09T17:31:54.231Z,3.70
2023-04-09T17:34:21.003Z,3.10
2023-04-09T17:36:56.277Z,3.90
2023-04-09T17:39:24.446Z,3.55
2023-04-09T17:41:56.400Z,3.50
2023-04-09T17:44:24.882Z,3.20
2023-04-09T17:46:52.126Z,3.93
2023-04-09T17:49:22.451Z,4.07
2023-04-09T17:51:50.606Z,3.10
2023-04-09T17:54:18.489Z,3.00
2023-04-09T17:56:45.863Z,3.10
2023-04-09T17:59:13.776Z,4.00
2023-04-09T18:01:41.974Z,3.53
2023-04-09T18:04:09.443Z,4.93
2023-04-09T18:06:37.497Z,3.42
2023-04-09T18:09:06.490Z,3.55
2023-04-09T18:11:33.446Z,4.75
2023-04-09T18:14:01.348Z,3.60
2023-04-09T18:16:32.087Z,3.42
2023-04-09T18:19:00.068Z,3.97
2023-04-09T18:21:27.605Z,4.00
2023-04-09T18:23:58.446Z,3.80
2023-04-09T18:26:26.379Z,3.53
2023-04-09T18:28:58.460Z,3.33
2023-04-09T18:31:27.878Z,3.10
2023-04-09T18:33:56.576Z,4.37
2023-04-09T18:36:24.494Z,3.22
2023-04-09T18:38:52.038Z,3.25
2023-04-09T18:41:26.112Z,3.85
2023-04-09T18:43:54.621Z,3.00
2023-04-09T18:46:24.155Z,3.47
2023-04-09T18:48:51.675Z,3.63
2023-04-09T18:51:21.514Z,3.70
2023-04-09T18:53:53.116Z,3.38
2023-04-09T18:56:23.159Z,3.05
2023-04-09T18:58:54.081Z,3.53
2023-04-09T19:01:23.429Z,3.60
2023-04-09T19:03:51.958Z,4.03
2023-04-09T19:06:23.385Z,3.20
2023-04-09T19:08:58.353Z,2.90
2023-04-09T19:11:28.463Z,3.13
2023-04-09T19:14:01.036Z,4.20
2023-04-09T19:16:52.472Z,2.90
2023-04-09T19:19:24.076Z,3.30
2023-04-09T19:21:59.491Z,3.37
2023-04-09T19:24:46.880Z,4.50
2023-04-09T19:27:15.023Z,2.70
2023-04-09T19:29:44.865Z,3.45
2023-04-09T19:32:13.374Z,3.97
2023-04-09T19:34:46.299Z,3.72
2023-04-09T19:37:15.102Z,3.63
2023-04-09T19:39:57.720Z,2.95
2023-04-09T19:43:10.404Z,3.38
2023-04-09T19:45:58.456Z,3.00
2023-04-09T19:48:37.403Z,3.72
2023-04-09T19:51:25.722Z,3.55
2023-04-09T19:54:14.795Z,3.42
2023-04-09T19:56:50.417Z,4.80
2023-04-09T19:59:18.267Z,4.15
2023-04-09T20:01:45.493Z,3.40
2023-04-09T20:04:18.448Z,3.10
2023-04-09T20:06:48.451Z,3.35
2023-04-09T20:09:18.084Z,3.58
2023-04-09T20:11:44.939Z,3.30
2023-04-09T20:14:12.127Z,3.67
2023-04-09T20:16:39.054Z,4.18
2023-04-09T20:19:07.085Z,3.38
2023-04-09T20:21:34.852Z,4.18
2023-04-09T20:24:02.532Z,4.15
2023-04-09T20:26:31.001Z,3.95
2023-04-09T20:28:58.854Z,3.00
2023-04-09T20:31:29.098Z,4.43
2023-04-09T20:33:56.962Z,5.45
2023-04-09T20:36:23.823Z,4.17
2023-04-09T20:38:51.867Z,3.95
2023-04-09T20:41:19.879Z,3.38
2023-04-09T20:43:47.795Z,4.15
2023-04-09T20:46:16.597Z,3.20
2023-04-09T20:48:43.695Z,3.30
2023-04-09T20:51:12.514Z,3.35
2023-04-09T20:53:39.426Z,3.37
2023-04-09T20:56:08.976Z,3.17
2023-04-09T20:58:36.822Z,3.70
2023-04-09T21:01:09.829Z,3.13
2023-04-09T21:03:38.023Z,3.55
2023-04-09T21:06:06.761Z,3.63
2023-04-09T21:08:38.343Z,3.43
2023-04-09T21:11:05.606Z,3.92
2023-04-09T21:13:40.409Z,3.67
2023-04-09T21:16:09.075Z,4.18
2023-04-09T21:18:39.091Z,3.38
2023-04-09T21:21:07.710Z,3.95
2023-04-09T21:23:37.492Z,4.22
2023-04-09T21:26:05.642Z,4.33
2023-04-09T21:28:35.668Z,5.18
2023-04-09T21:31:03.877Z,3.90
2023-04-09T21:33:31.658Z,3.00
2023-04-09T21:35:58.466Z,3.77
2023-04-09T21:38:25.904Z,3.40
2023-04-09T21:40:56.064Z,3.10
2023-04-09T21:43:23.907Z,3.45
2023-04-09T21:45:51.731Z,3.15
2023-04-09T21:48:21.417Z,3.33
2023-04-09T21:50:50.805Z,3.75
2023-04-09T21:53:18.937Z,4.47
2023-04-09T21:55:47.354Z,3.45
2023-04-09T21:58:15.425Z,4.00
2023-04-09T22:00:43.182Z,3.28
2023-04-09T22:03:12.508Z,3.05
2023-04-09T22:05:40.748Z,3.45
2023-04-09T22:08:08.584Z,3.20
2023-04-09T22:10:36.842Z,3.30
2023-04-09T22:13:03.675Z,3.28
2023-04-09T22:15:32.628Z,3.58
2023-04-09T22:18:00.499Z,3.30
2023-04-09T22:20:28.291Z,3.47
2023-04-09T22:22:56.104Z,3.20
2023-04-09T22:25:23.070Z,4.25
2023-04-09T22:27:53.103Z,3.83
2023-04-09T22:30:21.905Z,2.90
2023-04-09T22:32:48.721Z,3.40
2023-04-09T22:35:18.127Z,2.83
2023-04-09T22:37:46.950Z,3.53
2023-04-09T22:40:18.168Z,2.90
2023-04-09T22:42:48.268Z,3.08
2023-04-09T22:45:16.504Z,3.37
2023-04-09T22:47:44.400Z,2.97
2023-04-09T22:50:11.389Z,3.92
2023-04-09T22:52:38.211Z,3.17
2023-04-09T22:55:06.585Z,3.73
2023-04-09T22:57:34.343Z,3.20
2023-04-09T23:00:02.995Z,3.40
2023-04-09T23:02:29.803Z,4.07
2023-04-09T23:04:57.681Z,3.40
2023-04-09T23:07:24.477Z,3.67
2023-04-09T23:09:54.765Z,2.90
2023-04-09T23:12:21.550Z,2.97
2023-04-09T23:14:49.503Z,3.20
2023-04-09T23:17:16.774Z,2.92
2023-04-09T23:19:44.827Z,3.15
2023-04-09T23:22:12.720Z,3.33
2023-04-09T23:24:40.767Z,2.78
2023-04-09T23:27:11.186Z,2.88
2023-04-09T23:29:38.207Z,2.83
2023-04-09T23:32:05.069Z,2.63
2023-04-09T23:34:32.857Z,2.50
2023-04-09T23:37:00.914Z,2.50
2023-04-09T23:39:29.784Z,3.50
2023-04-09T23:41:57.913Z,2.55
2023-04-09T23:44:24.839Z,2.78
2023-04-09T23:46:53.670Z,3.03
2023-04-09T23:49:20.646Z,2.53
2023-04-09T23:51:51.502Z,2.60
2023-04-09T23:54:19.282Z,3.17
2023-04-09T23:56:47.588Z,2.35
2023-04-09T23:59:16.564Z,2.30
